UAL164 KEWR-OMDB
Flight info
| Callsign | UAL164 |
|---|---|
| Flight time | 4h 40m |
| Altitude | 31000 |
| Route | GREKI DCT JUDDS DCT MARTN DCT CBIRD DCT TAFFY N693A NEEKO/M085F310 NATX GISTI/N0494F310 DCT LESLU DCT LIZAD DCT JSY DCT ARSUK DCT RESMI DCT ODEBU DCT OGULO DCT OKASI DCT OKEKO DCT MOU DCT MADIV DCT MOKIP DCT TUFTA DCT KOGAS DCT MEDAM DCT NITAM DCT MOGBO DCT UPDIN DCT SOMAS DCT BELIX DCT SALUN N705 MMA P751 DASUM Y234 FYM M872 BDB Y214 RAPMA DCT KUVSO DCT KATIT DCT PEKEM M628 RIGIL G783 ASPED Q308 KIPOK Q568 IMPED |
| Aircraft | B77W/H-SDE1E2E3FGHIJ2J3J4J5M1RWXY/LB1D1 |
Departure
| Time | 2026-04-19 23:58 |
|---|---|
| Airport | Newark Liberty International Airport (KEWR) |
Arrival
| Time | 2026-04-20 04:38 |
|---|---|
| Airport | Dubai International Airport (OMDB) |
| Time | Latitude | Longitude | Altitude | Speed | Heading |
|---|---|---|---|---|---|
| 2026-04-19 23:17 | 40.69879 | -74.17776 | 27 ft | 0 kts | 270° |
| 2026-04-19 23:40 | 40.69879 | -74.17765 | 27 ft | 4 kts | 271° |
| 2026-04-19 23:40 | 40.69877 | -74.17730 | 27 ft | 4 kts | 275° |
| 2026-04-19 23:40 | 40.69875 | -74.17694 | 27 ft | 4 kts | 270° |
| 2026-04-19 23:41 | 40.69877 | -74.17662 | 27 ft | 4 kts | 249° |
| 2026-04-19 23:41 | 40.69886 | -74.17644 | 25 ft | 3 kts | 209° |
| 2026-04-19 23:41 | 40.69907 | -74.17632 | 24 ft | 4 kts | 185° |
| 2026-04-19 23:41 | 40.69927 | -74.17634 | 26 ft | 4 kts | 148° |
| 2026-04-19 23:42 | 40.69947 | -74.17656 | 25 ft | 4 kts | 138° |
| 2026-04-19 23:42 | 40.69966 | -74.17677 | 25 ft | 4 kts | 128° |
| 2026-04-19 23:42 | 40.69978 | -74.17705 | 24 ft | 4 kts | 107° |
| 2026-04-19 23:42 | 40.69983 | -74.17739 | 24 ft | 4 kts | 94° |
| 2026-04-19 23:43 | 40.69985 | -74.17774 | 24 ft | 3 kts | 95° |
| 2026-04-19 23:43 | 40.69985 | -74.17777 | 24 ft | 0 kts | 95° |
| 2026-04-19 23:46 | 40.69985 | -74.17776 | 24 ft | 1 kts | 95° |
| 2026-04-19 23:46 | 40.69983 | -74.17747 | 24 ft | 7 kts | 95° |
| 2026-04-19 23:46 | 40.69977 | -74.17661 | 27 ft | 10 kts | 95° |
| 2026-04-19 23:46 | 40.69972 | -74.17570 | 27 ft | 10 kts | 95° |
| 2026-04-19 23:47 | 40.69965 | -74.17479 | 27 ft | 10 kts | 96° |
| 2026-04-19 23:47 | 40.69947 | -74.17391 | 27 ft | 10 kts | 112° |
| 2026-04-19 23:47 | 40.69914 | -74.17312 | 27 ft | 10 kts | 123° |
| 2026-04-19 23:47 | 40.69872 | -74.17241 | 27 ft | 10 kts | 131° |
| 2026-04-19 23:48 | 40.69823 | -74.17176 | 27 ft | 10 kts | 136° |
| 2026-04-19 23:48 | 40.69769 | -74.17116 | 27 ft | 11 kts | 143° |
| 2026-04-19 23:48 | 40.69701 | -74.17062 | 27 ft | 12 kts | 152° |
| 2026-04-19 23:48 | 40.69624 | -74.17017 | 27 ft | 12 kts | 160° |
| 2026-04-19 23:49 | 40.69544 | -74.16989 | 27 ft | 12 kts | 168° |
| 2026-04-19 23:49 | 40.69460 | -74.16974 | 27 ft | 12 kts | 176° |
| 2026-04-19 23:49 | 40.69376 | -74.16977 | 27 ft | 12 kts | 185° |
| 2026-04-19 23:49 | 40.69293 | -74.16997 | 27 ft | 12 kts | 196° |
| 2026-04-19 23:50 | 40.69216 | -74.17039 | 26 ft | 12 kts | 205° |
| 2026-04-19 23:50 | 40.69140 | -74.17087 | 26 ft | 12 kts | 206° |
| 2026-04-19 23:50 | 40.69064 | -74.17136 | 30 ft | 12 kts | 206° |
| 2026-04-19 23:50 | 40.68989 | -74.17184 | 26 ft | 12 kts | 206° |
| 2026-04-19 23:51 | 40.68913 | -74.17232 | 27 ft | 12 kts | 206° |
| 2026-04-19 23:51 | 40.68837 | -74.17280 | 27 ft | 12 kts | 206° |
| 2026-04-19 23:51 | 40.68761 | -74.17329 | 27 ft | 12 kts | 206° |
| 2026-04-19 23:51 | 40.68686 | -74.17376 | 28 ft | 12 kts | 205° |
| 2026-04-19 23:52 | 40.68610 | -74.17425 | 28 ft | 12 kts | 206° |
| 2026-04-19 23:52 | 40.68534 | -74.17473 | 28 ft | 12 kts | 205° |
| 2026-04-19 23:52 | 40.68458 | -74.17521 | 27 ft | 12 kts | 205° |
| 2026-04-19 23:52 | 40.68383 | -74.17569 | 27 ft | 12 kts | 206° |
| 2026-04-19 23:53 | 40.68307 | -74.17617 | 27 ft | 12 kts | 205° |
| 2026-04-19 23:53 | 40.68232 | -74.17665 | 26 ft | 12 kts | 206° |
| 2026-04-19 23:53 | 40.68156 | -74.17714 | 27 ft | 12 kts | 206° |
| 2026-04-19 23:53 | 40.68080 | -74.17762 | 27 ft | 12 kts | 206° |
| 2026-04-19 23:54 | 40.68005 | -74.17810 | 27 ft | 12 kts | 205° |
| 2026-04-19 23:54 | 40.67929 | -74.17858 | 27 ft | 12 kts | 206° |
| 2026-04-19 23:54 | 40.67853 | -74.17906 | 27 ft | 12 kts | 206° |
| 2026-04-19 23:54 | 40.67779 | -74.17954 | 27 ft | 11 kts | 206° |
| 2026-04-19 23:55 | 40.67708 | -74.17999 | 27 ft | 11 kts | 206° |
| 2026-04-19 23:55 | 40.67651 | -74.18035 | 27 ft | 7 kts | 205° |
| 2026-04-19 23:55 | 40.67611 | -74.18039 | 27 ft | 6 kts | 165° |
| 2026-04-19 23:55 | 40.67580 | -74.18008 | 27 ft | 6 kts | 129° |
| 2026-04-19 23:56 | 40.67560 | -74.17962 | 27 ft | 6 kts | 115° |
| 2026-04-19 23:56 | 40.67573 | -74.17927 | 27 ft | 4 kts | 45° |
| 2026-04-19 23:56 | 40.67598 | -74.17908 | 27 ft | 2 kts | 26° |
| 2026-04-19 23:56 | 40.67599 | -74.17907 | 27 ft | 0 kts | 26° |
| 2026-04-19 23:57 | 40.67602 | -74.17905 | 27 ft | 6 kts | 26° |
| 2026-04-19 23:57 | 40.67833 | -74.17759 | 29 ft | 78 kts | 26° |
| 2026-04-19 23:57 | 40.68586 | -74.17281 | 29 ft | 159 kts | 26° |
| 2026-04-19 23:57 | 40.69778 | -74.16519 | 58 ft | 218 kts | 24° |
| 2026-04-19 23:58 | 40.71156 | -74.15620 | 951 ft | 217 kts | 24° |
| 2026-04-19 23:58 | 40.72397 | -74.14459 | 1959 ft | 224 kts | 41° |
| 2026-04-19 23:58 | 40.73502 | -74.12942 | 2787 ft | 238 kts | 42° |
| 2026-04-19 23:58 | 40.74678 | -74.11321 | 3252 ft | 249 kts | 42° |
| 2026-04-19 23:59 | 40.75977 | -74.09857 | 3724 ft | 247 kts | 21° |
| 2026-04-19 23:59 | 40.77607 | -74.09377 | 4338 ft | 237 kts | 350° |
| 2026-04-19 23:59 | 40.79127 | -74.10065 | 4990 ft | 230 kts | 320° |
| 2026-04-19 23:59 | 40.80110 | -74.11659 | 5600 ft | 229 kts | 291° |
| 2026-04-20 00:00 | 40.80495 | -74.13726 | 6125 ft | 236 kts | 281° |
| 2026-04-20 00:00 | 40.81053 | -74.15764 | 6569 ft | 240 kts | 307° |
| 2026-04-20 00:00 | 40.82363 | -74.17147 | 7134 ft | 249 kts | 334° |
| 2026-04-20 00:00 | 40.84087 | -74.17495 | 7762 ft | 262 kts | 360° |
| 2026-04-20 00:01 | 40.85915 | -74.17058 | 8344 ft | 270 kts | 6° |
| 2026-04-20 00:01 | 40.87761 | -74.16478 | 8947 ft | 275 kts | 7° |
| 2026-04-20 00:01 | 40.90854 | -74.15181 | 9966 ft | 286 kts | 14° |
| 2026-04-20 00:02 | 40.92724 | -74.14195 | 10492 ft | 291 kts | 14° |
| 2026-04-20 00:02 | 40.94650 | -74.13167 | 10780 ft | 307 kts | 14° |
| 2026-04-20 00:02 | 40.96678 | -74.12095 | 10948 ft | 327 kts | 14° |
| 2026-04-20 00:02 | 40.98863 | -74.10949 | 11110 ft | 347 kts | 14° |
| 2026-04-20 00:03 | 41.01179 | -74.09741 | 11278 ft | 367 kts | 15° |
| 2026-04-20 00:03 | 41.03589 | -74.08487 | 11623 ft | 382 kts | 15° |
| 2026-04-20 00:03 | 41.06107 | -74.07178 | 12055 ft | 393 kts | 15° |
| 2026-04-20 00:03 | 41.08685 | -74.05840 | 12636 ft | 401 kts | 14° |
| 2026-04-20 00:04 | 41.11308 | -74.04480 | 13252 ft | 408 kts | 14° |
| 2026-04-20 00:04 | 41.13958 | -74.03110 | 13827 ft | 416 kts | 14° |
| 2026-04-20 00:04 | 41.16687 | -74.01700 | 14341 ft | 424 kts | 14° |
| 2026-04-20 00:04 | 41.19476 | -74.00261 | 14773 ft | 433 kts | 14° |
| 2026-04-20 00:05 | 41.22318 | -73.98795 | 15230 ft | 442 kts | 14° |
| 2026-04-20 00:05 | 41.25230 | -73.97290 | 15680 ft | 451 kts | 14° |
| 2026-04-20 00:05 | 41.28155 | -73.95776 | 16150 ft | 460 kts | 15° |
| 2026-04-20 00:05 | 41.31175 | -73.94212 | 16589 ft | 469 kts | 15° |
| 2026-04-20 00:06 | 41.34250 | -73.92618 | 17041 ft | 478 kts | 15° |
| 2026-04-20 00:06 | 41.37378 | -73.90994 | 17501 ft | 487 kts | 15° |
| 2026-04-20 00:06 | 41.40522 | -73.89359 | 17932 ft | 496 kts | 15° |
| 2026-04-20 00:06 | 41.43778 | -73.87665 | 18334 ft | 506 kts | 16° |
| 2026-04-20 00:07 | 41.47087 | -73.85941 | 18757 ft | 512 kts | 16° |
| 2026-04-20 00:07 | 41.50382 | -73.84220 | 19354 ft | 513 kts | 16° |
| 2026-04-20 00:07 | 41.53725 | -73.82472 | 19946 ft | 514 kts | 16° |
| 2026-04-20 00:07 | 41.57072 | -73.80719 | 20507 ft | 517 kts | 16° |
| 2026-04-20 00:08 | 41.60443 | -73.78955 | 21001 ft | 521 kts | 16° |
| 2026-04-20 00:08 | 41.63804 | -73.77195 | 21482 ft | 526 kts | 16° |
| 2026-04-20 00:08 | 41.67228 | -73.75402 | 21982 ft | 530 kts | 16° |
| 2026-04-20 00:08 | 41.70686 | -73.73588 | 22498 ft | 533 kts | 16° |
| 2026-04-20 00:09 | 41.74163 | -73.71762 | 22996 ft | 537 kts | 16° |
| 2026-04-20 00:09 | 41.77658 | -73.69924 | 23480 ft | 540 kts | 16° |
| 2026-04-20 00:09 | 41.81131 | -73.68095 | 23883 ft | 544 kts | 16° |
| 2026-04-20 00:09 | 41.84676 | -73.66227 | 24256 ft | 548 kts | 16° |
| 2026-04-20 00:10 | 41.88259 | -73.64336 | 24617 ft | 552 kts | 16° |
| 2026-04-20 00:10 | 41.91853 | -73.62437 | 24970 ft | 556 kts | 16° |
| 2026-04-20 00:10 | 41.95420 | -73.60550 | 25317 ft | 559 kts | 16° |
| 2026-04-20 00:10 | 41.99051 | -73.58626 | 25671 ft | 563 kts | 16° |
| 2026-04-20 00:11 | 42.02707 | -73.56687 | 26025 ft | 566 kts | 16° |
| 2026-04-20 00:11 | 42.06384 | -73.54734 | 26388 ft | 569 kts | 16° |
| 2026-04-20 00:11 | 42.10077 | -73.52770 | 26734 ft | 572 kts | 16° |
| 2026-04-20 00:11 | 42.13797 | -73.50788 | 27083 ft | 576 kts | 16° |
| 2026-04-20 00:12 | 42.17534 | -73.48796 | 27423 ft | 579 kts | 16° |
| 2026-04-20 00:12 | 42.21253 | -73.46811 | 27736 ft | 582 kts | 16° |
| 2026-04-20 00:12 | 42.25037 | -73.44791 | 28034 ft | 585 kts | 16° |
| 2026-04-20 00:12 | 42.28835 | -73.42758 | 28346 ft | 588 kts | 17° |
| 2026-04-20 00:13 | 42.32648 | -73.40714 | 28653 ft | 590 kts | 17° |
| 2026-04-20 00:13 | 42.36438 | -73.38679 | 28947 ft | 593 kts | 17° |
| 2026-04-20 00:13 | 42.40270 | -73.36620 | 29261 ft | 594 kts | 17° |
| 2026-04-20 00:13 | 42.44126 | -73.34544 | 29665 ft | 594 kts | 17° |
| 2026-04-20 00:14 | 42.47928 | -73.32494 | 30089 ft | 592 kts | 17° |
| 2026-04-20 00:14 | 42.51766 | -73.30423 | 30440 ft | 592 kts | 17° |
| 2026-04-20 00:14 | 42.55595 | -73.28294 | 30745 ft | 593 kts | 20° |
| 2026-04-20 00:14 | 42.59290 | -73.25858 | 30969 ft | 599 kts | 25° |
| 2026-04-20 00:15 | 42.62891 | -73.22914 | 30995 ft | 603 kts | 32° |
| 2026-04-20 00:15 | 42.69773 | -73.16489 | 31009 ft | 600 kts | 33° |
| 2026-04-20 00:16 | 42.76636 | -73.09996 | 31016 ft | 598 kts | 33° |
| 2026-04-20 00:16 | 42.83476 | -73.03623 | 31014 ft | 596 kts | 32° |
| 2026-04-20 00:17 | 42.90320 | -72.97298 | 31014 ft | 597 kts | 32° |
| 2026-04-20 00:17 | 43.05436 | -72.83266 | 31011 ft | 599 kts | 33° |
| 2026-04-20 00:18 | 43.32926 | -72.57477 | 31003 ft | 602 kts | 33° |
| 2026-04-20 00:18 | 43.60490 | -72.31334 | 30997 ft | 602 kts | 34° |
| 2026-04-20 00:19 | 43.87987 | -72.04952 | 30975 ft | 601 kts | 35° |
| 2026-04-20 00:19 | 44.15440 | -71.78312 | 30947 ft | 599 kts | 36° |
| 2026-04-20 00:20 | 44.42557 | -71.51693 | 30943 ft | 599 kts | 37° |
| 2026-04-20 00:20 | 44.69855 | -71.24581 | 30923 ft | 599 kts | 37° |
| 2026-04-20 00:21 | 44.95276 | -70.94875 | 30863 ft | 595 kts | 50° |
| 2026-04-20 00:21 | 45.18647 | -70.61598 | 30889 ft | 594 kts | 50° |
| 2026-04-20 00:22 | 45.41800 | -70.28401 | 30858 ft | 592 kts | 51° |
| 2026-04-20 00:22 | 45.64879 | -69.94901 | 30830 ft | 590 kts | 51° |
| 2026-04-20 00:23 | 45.87638 | -69.61449 | 30804 ft | 587 kts | 52° |
| 2026-04-20 00:23 | 46.10342 | -69.27659 | 30798 ft | 584 kts | 52° |
| 2026-04-20 00:24 | 46.32777 | -68.93843 | 30789 ft | 581 kts | 53° |
| 2026-04-20 00:24 | 46.54879 | -68.60108 | 30784 ft | 579 kts | 53° |
| 2026-04-20 00:24 | 46.65365 | -68.42560 | 30730 ft | 560 kts | 70° |
| 2026-04-20 00:25 | 46.69522 | -68.21544 | 30765 ft | 532 kts | 92° |
| 2026-04-20 00:25 | 46.74540 | -67.78965 | 30722 ft | 531 kts | 90° |
| 2026-04-20 00:26 | 46.79424 | -67.36949 | 30751 ft | 525 kts | 90° |
| 2026-04-20 00:26 | 46.84218 | -66.94342 | 30713 ft | 536 kts | 90° |
| 2026-04-20 00:26 | 46.86565 | -66.72988 | 30639 ft | 525 kts | 90° |
| 2026-04-20 00:27 | 46.88818 | -66.52039 | 30627 ft | 518 kts | 90° |
| 2026-04-20 00:27 | 46.97144 | -66.11404 | 30677 ft | 565 kts | 52° |
| 2026-04-20 00:28 | 47.18594 | -65.78062 | 30605 ft | 551 kts | 51° |
| 2026-04-20 00:28 | 47.39225 | -65.45027 | 30715 ft | 556 kts | 51° |
| 2026-04-20 00:29 | 47.60271 | -65.10966 | 30618 ft | 554 kts | 51° |
| 2026-04-20 00:29 | 47.80599 | -64.77632 | 30655 ft | 546 kts | 51° |
| 2026-04-20 00:30 | 48.01105 | -64.43582 | 30691 ft | 556 kts | 51° |
| 2026-04-20 00:30 | 48.21362 | -64.09513 | 30623 ft | 540 kts | 51° |
| 2026-04-20 00:31 | 48.41454 | -63.75273 | 30719 ft | 552 kts | 51° |
| 2026-04-20 00:31 | 48.61383 | -63.40883 | 30620 ft | 537 kts | 52° |
| 2026-04-20 00:32 | 48.80951 | -63.06657 | 30715 ft | 542 kts | 52° |
| 2026-04-20 00:32 | 49.00748 | -62.71590 | 30654 ft | 539 kts | 52° |
| 2026-04-20 00:33 | 49.19768 | -62.37441 | 30714 ft | 530 kts | 52° |
| 2026-04-20 00:33 | 49.39064 | -62.02344 | 30735 ft | 538 kts | 53° |
| 2026-04-20 00:34 | 49.57873 | -61.67679 | 30710 ft | 523 kts | 53° |
| 2026-04-20 00:34 | 49.76708 | -61.32492 | 30765 ft | 536 kts | 54° |
| 2026-04-20 00:35 | 49.95255 | -60.97393 | 30699 ft | 519 kts | 54° |
| 2026-04-20 00:35 | 50.13637 | -60.62109 | 30826 ft | 531 kts | 54° |
| 2026-04-20 00:36 | 50.32039 | -60.26335 | 30736 ft | 521 kts | 55° |
| 2026-04-20 00:36 | 50.49988 | -59.90934 | 30840 ft | 524 kts | 55° |
| 2026-04-20 00:37 | 50.68177 | -59.54585 | 30818 ft | 528 kts | 55° |
| 2026-04-20 00:37 | 50.86049 | -59.18357 | 30839 ft | 520 kts | 55° |
| 2026-04-20 00:38 | 51.03942 | -58.81574 | 30899 ft | 535 kts | 55° |
| 2026-04-20 00:38 | 51.21800 | -58.44346 | 30823 ft | 520 kts | 56° |
| 2026-04-20 00:39 | 51.39360 | -58.07193 | 30937 ft | 535 kts | 56° |
| 2026-04-20 00:39 | 51.57270 | -57.68764 | 30831 ft | 528 kts | 56° |
| 2026-04-20 00:40 | 51.74611 | -57.30980 | 30930 ft | 531 kts | 56° |
| 2026-04-20 00:40 | 51.92159 | -56.92190 | 30882 ft | 535 kts | 56° |
| 2026-04-20 00:41 | 52.09454 | -56.53368 | 30891 ft | 528 kts | 56° |
| 2026-04-20 00:41 | 52.26784 | -56.13874 | 30933 ft | 542 kts | 56° |
| 2026-04-20 00:42 | 52.38825 | -55.86062 | 31566 ft | 537 kts | 57° |
| 2026-04-20 00:42 | 52.40825 | -55.80931 | 32027 ft | 530 kts | 63° |
| 2026-04-20 00:42 | 52.42534 | -55.75596 | 32517 ft | 524 kts | 65° |
| 2026-04-20 00:42 | 52.44162 | -55.70255 | 32914 ft | 521 kts | 66° |
| 2026-04-20 00:43 | 52.45799 | -55.64804 | 32906 ft | 526 kts | 66° |
| 2026-04-20 00:43 | 52.57538 | -55.26041 | 32902 ft | 520 kts | 65° |
| 2026-04-20 00:44 | 52.70158 | -54.83969 | 32904 ft | 511 kts | 65° |
| 2026-04-20 00:44 | 52.82726 | -54.41306 | 32978 ft | 526 kts | 65° |
| 2026-04-20 00:45 | 52.95188 | -53.98239 | 32890 ft | 511 kts | 65° |
| 2026-04-20 00:45 | 53.07411 | -53.55208 | 33020 ft | 522 kts | 65° |
| 2026-04-20 00:46 | 53.19756 | -53.10936 | 32931 ft | 524 kts | 65° |
| 2026-04-20 00:46 | 53.31753 | -52.67080 | 32948 ft | 517 kts | 65° |
| 2026-04-20 00:47 | 53.43706 | -52.22542 | 33002 ft | 535 kts | 65° |
| 2026-04-20 00:47 | 53.55588 | -51.77373 | 32933 ft | 521 kts | 65° |
| 2026-04-20 00:48 | 53.67219 | -51.32284 | 33050 ft | 531 kts | 65° |
| 2026-04-20 00:48 | 53.78899 | -50.86050 | 32957 ft | 532 kts | 65° |
| 2026-04-20 00:49 | 53.90130 | -50.40677 | 32983 ft | 522 kts | 64° |
| 2026-04-20 00:49 | 54.00989 | -49.94067 | 33001 ft | 540 kts | 73° |
| 2026-04-20 00:50 | 54.07748 | -49.45353 | 32956 ft | 521 kts | 73° |
| 2026-04-20 00:50 | 54.14392 | -48.97073 | 33074 ft | 531 kts | 74° |
| 2026-04-20 00:51 | 54.20948 | -48.47691 | 33000 ft | 527 kts | 74° |
| 2026-04-20 00:51 | 54.27166 | -47.99272 | 33035 ft | 521 kts | 74° |
| 2026-04-20 00:52 | 54.33262 | -47.50113 | 33074 ft | 535 kts | 74° |
| 2026-04-20 00:52 | 54.39170 | -47.00644 | 32983 ft | 519 kts | 74° |
| 2026-04-20 00:53 | 54.44804 | -46.51779 | 33107 ft | 533 kts | 74° |
| 2026-04-20 00:53 | 54.50367 | -46.01482 | 33015 ft | 531 kts | 74° |
| 2026-04-20 00:54 | 54.54761 | -45.60312 | 33030 ft | 522 kts | 73° |
| 2026-04-20 00:54 | 54.59909 | -45.10244 | 33114 ft | 538 kts | 73° |
| 2026-04-20 00:55 | 54.64864 | -44.59739 | 33014 ft | 525 kts | 73° |
| 2026-04-20 00:55 | 54.69552 | -44.09950 | 33115 ft | 532 kts | 73° |
| 2026-04-20 00:56 | 54.74129 | -43.58771 | 33036 ft | 536 kts | 73° |
| 2026-04-20 00:56 | 54.78401 | -43.08649 | 33039 ft | 523 kts | 73° |
| 2026-04-20 00:57 | 54.82529 | -42.57722 | 33105 ft | 540 kts | 73° |
| 2026-04-20 00:57 | 54.86441 | -42.06415 | 33002 ft | 525 kts | 72° |
| 2026-04-20 00:58 | 54.90066 | -41.56418 | 33096 ft | 528 kts | 72° |
| 2026-04-20 00:58 | 54.93538 | -41.05198 | 33053 ft | 531 kts | 72° |
| 2026-04-20 00:58 | 54.95161 | -40.80063 | 33007 ft | 520 kts | 72° |
| 2026-04-20 00:59 | 54.96718 | -40.55295 | 33023 ft | 516 kts | 72° |
| 2026-04-20 00:59 | 54.99730 | -40.04781 | 33090 ft | 531 kts | 72° |
| 2026-04-20 00:59 | 55.00890 | -39.79230 | 32981 ft | 530 kts | 74° |
| 2026-04-20 01:00 | 55.01796 | -39.53726 | 32954 ft | 518 kts | 73° |
| 2026-04-20 01:00 | 55.03587 | -39.03572 | 33071 ft | 525 kts | 73° |
| 2026-04-20 01:01 | 55.05155 | -38.52471 | 32965 ft | 523 kts | 73° |
| 2026-04-20 01:01 | 55.05846 | -38.27510 | 32933 ft | 512 kts | 72° |
| 2026-04-20 01:01 | 55.06501 | -38.02654 | 33003 ft | 512 kts | 72° |
| 2026-04-20 01:02 | 55.07656 | -37.52220 | 33015 ft | 528 kts | 73° |
| 2026-04-20 01:02 | 55.08579 | -37.01621 | 32918 ft | 512 kts | 73° |
| 2026-04-20 01:03 | 55.09324 | -36.51664 | 33040 ft | 526 kts | 75° |
| 2026-04-20 01:03 | 55.09831 | -36.00480 | 32930 ft | 519 kts | 77° |
| 2026-04-20 01:04 | 55.10151 | -35.50664 | 32991 ft | 514 kts | 78° |
| 2026-04-20 01:04 | 55.10255 | -34.99887 | 32986 ft | 525 kts | 80° |
| 2026-04-20 01:05 | 55.10146 | -34.49904 | 32921 ft | 509 kts | 82° |
| 2026-04-20 01:05 | 55.09848 | -33.99846 | 33035 ft | 524 kts | 84° |
| 2026-04-20 01:06 | 55.09319 | -33.49277 | 32930 ft | 510 kts | 86° |
| 2026-04-20 01:06 | 55.08620 | -33.00163 | 33027 ft | 507 kts | 88° |
| 2026-04-20 01:07 | 55.07711 | -32.50877 | 32982 ft | 507 kts | 89° |
| 2026-04-20 01:07 | 55.07190 | -32.26631 | 32928 ft | 496 kts | 90° |
| 2026-04-20 01:07 | 55.06629 | -32.02591 | 32980 ft | 492 kts | 90° |
| 2026-04-20 01:08 | 55.05360 | -31.54433 | 33041 ft | 505 kts | 91° |
| 2026-04-20 01:08 | 55.03898 | -31.06228 | 32950 ft | 485 kts | 94° |
| 2026-04-20 01:09 | 55.02295 | -30.59453 | 33045 ft | 487 kts | 95° |
| 2026-04-20 01:09 | 55.00493 | -30.12152 | 32977 ft | 485 kts | 96° |
| 2026-04-20 01:09 | 54.99434 | -29.88988 | 32920 ft | 470 kts | 99° |
| 2026-04-20 01:10 | 54.98059 | -29.66635 | 32990 ft | 464 kts | 99° |
| 2026-04-20 01:10 | 54.93801 | -28.98728 | 32954 ft | 464 kts | 101° |
| 2026-04-20 01:11 | 54.92343 | -28.76757 | 32933 ft | 451 kts | 102° |
| 2026-04-20 01:11 | 54.90879 | -28.55355 | 32985 ft | 451 kts | 102° |
| 2026-04-20 01:11 | 54.87762 | -28.11458 | 32994 ft | 459 kts | 103° |
| 2026-04-20 01:12 | 54.84546 | -27.68311 | 32927 ft | 440 kts | 103° |
| 2026-04-20 01:12 | 54.81216 | -27.25900 | 32992 ft | 453 kts | 103° |
| 2026-04-20 01:13 | 54.77700 | -26.82887 | 32884 ft | 441 kts | 104° |
| 2026-04-20 01:13 | 54.74102 | -26.40945 | 32936 ft | 444 kts | 104° |
| 2026-04-20 01:14 | 54.70283 | -25.98116 | 32878 ft | 449 kts | 104° |
| 2026-04-20 01:14 | 54.66398 | -25.56302 | 32857 ft | 440 kts | 105° |
| 2026-04-20 01:15 | 54.62283 | -25.13727 | 32867 ft | 456 kts | 105° |
| 2026-04-20 01:15 | 54.58021 | -24.71150 | 32789 ft | 442 kts | 105° |
| 2026-04-20 01:16 | 54.53648 | -24.29167 | 32878 ft | 455 kts | 105° |
| 2026-04-20 01:16 | 54.49023 | -23.86165 | 32808 ft | 451 kts | 105° |
| 2026-04-20 01:17 | 54.44346 | -23.44244 | 32893 ft | 451 kts | 105° |
| 2026-04-20 01:17 | 54.41903 | -23.22876 | 32915 ft | 462 kts | 105° |
| 2026-04-20 01:17 | 54.39368 | -23.01042 | 32859 ft | 462 kts | 105° |
| 2026-04-20 01:18 | 54.34321 | -22.58636 | 32873 ft | 450 kts | 105° |
| 2026-04-20 01:18 | 54.29067 | -22.15918 | 32955 ft | 467 kts | 105° |
| 2026-04-20 01:19 | 54.23602 | -21.72767 | 32893 ft | 455 kts | 106° |
| 2026-04-20 01:19 | 54.18094 | -21.30634 | 33007 ft | 461 kts | 106° |
| 2026-04-20 01:20 | 54.12329 | -20.87751 | 32950 ft | 461 kts | 106° |
| 2026-04-20 01:20 | 54.06503 | -20.45673 | 33027 ft | 456 kts | 106° |
| 2026-04-20 01:21 | 54.00428 | -20.02963 | 33024 ft | 468 kts | 106° |
| 2026-04-20 01:21 | 53.93129 | -19.61156 | 33022 ft | 456 kts | 109° |
| 2026-04-20 01:22 | 53.85607 | -19.19513 | 33099 ft | 473 kts | 109° |
| 2026-04-20 01:22 | 53.77770 | -18.77109 | 33034 ft | 464 kts | 110° |
| 2026-04-20 01:23 | 53.69949 | -18.35750 | 33119 ft | 468 kts | 110° |
| 2026-04-20 01:23 | 53.61763 | -17.93383 | 33115 ft | 472 kts | 110° |
| 2026-04-20 01:24 | 53.57712 | -17.72749 | 33071 ft | 461 kts | 110° |
| 2026-04-20 01:24 | 53.53707 | -17.52559 | 33106 ft | 457 kts | 111° |
| 2026-04-20 01:24 | 53.45374 | -17.11265 | 33177 ft | 472 kts | 111° |
| 2026-04-20 01:25 | 53.36977 | -16.70458 | 33105 ft | 454 kts | 111° |
| 2026-04-20 01:25 | 53.28576 | -16.30485 | 33202 ft | 464 kts | 111° |
| 2026-04-20 01:26 | 53.19862 | -15.89806 | 33131 ft | 459 kts | 111° |
| 2026-04-20 01:26 | 53.11182 | -15.50092 | 33203 ft | 456 kts | 111° |
| 2026-04-20 01:27 | 53.02235 | -15.09912 | 33193 ft | 465 kts | 111° |
| 2026-04-20 01:27 | 52.99942 | -14.88927 | 33139 ft | 458 kts | 92° |
| 2026-04-20 01:27 | 53.00068 | -14.67975 | 33179 ft | 449 kts | 92° |
| 2026-04-20 01:28 | 53.00076 | -14.26071 | 33259 ft | 460 kts | 93° |
| 2026-04-20 01:28 | 52.95885 | -13.85770 | 33215 ft | 439 kts | 117° |
| 2026-04-20 01:29 | 52.84843 | -13.49101 | 33284 ft | 452 kts | 117° |
| 2026-04-20 01:29 | 52.73574 | -13.11869 | 33201 ft | 448 kts | 117° |
| 2026-04-20 01:30 | 52.62424 | -12.75604 | 33274 ft | 447 kts | 117° |
| 2026-04-20 01:30 | 52.50868 | -12.38578 | 33248 ft | 456 kts | 117° |
| 2026-04-20 01:31 | 52.39382 | -12.02326 | 33241 ft | 447 kts | 117° |
| 2026-04-20 01:31 | 52.27627 | -11.65778 | 33284 ft | 463 kts | 118° |
| 2026-04-20 01:32 | 52.15650 | -11.29085 | 33224 ft | 448 kts | 118° |
| 2026-04-20 01:32 | 52.03742 | -10.93139 | 33320 ft | 461 kts | 118° |
| 2026-04-20 01:33 | 51.91389 | -10.56390 | 33229 ft | 457 kts | 118° |
| 2026-04-20 01:33 | 51.79215 | -10.20697 | 33310 ft | 459 kts | 119° |
| 2026-04-20 01:34 | 51.66604 | -9.84252 | 33265 ft | 468 kts | 119° |
| 2026-04-20 01:34 | 51.54004 | -9.48359 | 33260 ft | 457 kts | 119° |
| 2026-04-20 01:35 | 51.41098 | -9.12112 | 33321 ft | 475 kts | 120° |
| 2026-04-20 01:35 | 51.28002 | -8.75853 | 33226 ft | 462 kts | 120° |
| 2026-04-20 01:36 | 51.15039 | -8.40464 | 33316 ft | 471 kts | 120° |
| 2026-04-20 01:36 | 51.01601 | -8.04277 | 33235 ft | 472 kts | 121° |
| 2026-04-20 01:37 | 50.90770 | -7.74356 | 33263 ft | 469 kts | 120° |
| 2026-04-20 01:37 | 50.84191 | -7.56177 | 33319 ft | 480 kts | 120° |
| 2026-04-20 01:37 | 50.77512 | -7.37885 | 33296 ft | 487 kts | 120° |
| 2026-04-20 01:38 | 50.63968 | -7.01175 | 33239 ft | 477 kts | 121° |
| 2026-04-20 01:38 | 50.50383 | -6.64874 | 33303 ft | 491 kts | 121° |
| 2026-04-20 01:39 | 50.36362 | -6.27932 | 33228 ft | 489 kts | 122° |
| 2026-04-20 01:39 | 50.22435 | -5.91754 | 33290 ft | 486 kts | 122° |
| 2026-04-20 01:40 | 50.08165 | -5.55197 | 33268 ft | 498 kts | 122° |
| 2026-04-20 01:40 | 49.93838 | -5.19002 | 33210 ft | 487 kts | 123° |
| 2026-04-20 01:41 | 49.79296 | -4.82767 | 33292 ft | 504 kts | 123° |
| 2026-04-20 01:41 | 49.64396 | -4.46138 | 33196 ft | 497 kts | 123° |
| 2026-04-20 01:42 | 49.58115 | -4.27259 | 33184 ft | 498 kts | 108° |
| 2026-04-20 01:42 | 49.54925 | -4.06507 | 33275 ft | 506 kts | 103° |
| 2026-04-20 01:42 | 49.48335 | -3.63767 | 33214 ft | 509 kts | 104° |
| 2026-04-20 01:43 | 49.41733 | -3.22282 | 33261 ft | 500 kts | 104° |
| 2026-04-20 01:43 | 49.34849 | -2.80096 | 33273 ft | 515 kts | 104° |
| 2026-04-20 01:44 | 49.27847 | -2.38230 | 33199 ft | 502 kts | 104° |
| 2026-04-20 01:44 | 49.20720 | -1.96083 | 33307 ft | 518 kts | 103° |
| 2026-04-20 01:45 | 49.14150 | -1.53228 | 33202 ft | 512 kts | 103° |
| 2026-04-20 01:45 | 49.07448 | -1.11168 | 33292 ft | 517 kts | 103° |
| 2026-04-20 01:46 | 49.00421 | -0.68149 | 33228 ft | 523 kts | 104° |
| 2026-04-20 01:46 | 48.93317 | -0.25747 | 33229 ft | 514 kts | 104° |
| 2026-04-20 01:47 | 48.85989 | 0.16942 | 33277 ft | 531 kts | 104° |
| 2026-04-20 01:47 | 48.78410 | 0.60036 | 33192 ft | 519 kts | 104° |
| 2026-04-20 01:48 | 48.72513 | 1.02961 | 33253 ft | 530 kts | 100° |
| 2026-04-20 01:48 | 48.66732 | 1.47083 | 33196 ft | 531 kts | 100° |
| 2026-04-20 01:49 | 48.60854 | 1.90620 | 33232 ft | 528 kts | 100° |
| 2026-04-20 01:49 | 48.57822 | 2.12057 | 33241 ft | 539 kts | 106° |
| 2026-04-20 01:49 | 48.54463 | 2.22470 | 33236 ft | 540 kts | 126° |
| 2026-04-20 01:50 | 48.49073 | 2.31397 | 33258 ft | 534 kts | 139° |
| 2026-04-20 01:50 | 48.39019 | 2.46186 | 33122 ft | 524 kts | 137° |
| 2026-04-20 01:50 | 48.28566 | 2.61050 | 33123 ft | 519 kts | 148° |
| 2026-04-20 01:50 | 48.15924 | 2.71460 | 33217 ft | 524 kts | 154° |
| 2026-04-20 01:51 | 47.89500 | 2.89752 | 33135 ft | 520 kts | 161° |
| 2026-04-20 01:51 | 47.63273 | 3.06293 | 33173 ft | 510 kts | 161° |
| 2026-04-20 01:52 | 47.36691 | 3.22853 | 33163 ft | 522 kts | 161° |
| 2026-04-20 01:52 | 47.10325 | 3.39106 | 33113 ft | 506 kts | 161° |
| 2026-04-20 01:53 | 46.84096 | 3.55094 | 33185 ft | 518 kts | 161° |
| 2026-04-20 01:53 | 46.74510 | 3.61269 | 33124 ft | 522 kts | 148° |
| 2026-04-20 01:53 | 46.70812 | 3.66672 | 33164 ft | 522 kts | 124° |
| 2026-04-20 01:54 | 46.66895 | 3.85381 | 33099 ft | 517 kts | 102° |
| 2026-04-20 01:54 | 46.63368 | 4.05870 | 33069 ft | 520 kts | 103° |
| 2026-04-20 01:54 | 46.56147 | 4.47063 | 33150 ft | 532 kts | 103° |
| 2026-04-20 01:55 | 46.48751 | 4.88283 | 33083 ft | 518 kts | 103° |
| 2026-04-20 01:55 | 46.41258 | 5.28990 | 33171 ft | 532 kts | 104° |
| 2026-04-20 01:56 | 46.35133 | 5.48575 | 33105 ft | 532 kts | 128° |
| 2026-04-20 01:56 | 46.25609 | 5.64474 | 33079 ft | 523 kts | 132° |
| 2026-04-20 01:56 | 46.06723 | 5.96141 | 33123 ft | 525 kts | 131° |
| 2026-04-20 01:57 | 45.87235 | 6.28499 | 33067 ft | 530 kts | 131° |
| 2026-04-20 01:57 | 45.75058 | 6.45132 | 33082 ft | 517 kts | 147° |
| 2026-04-20 01:58 | 45.53543 | 6.66755 | 33090 ft | 516 kts | 147° |
| 2026-04-20 01:58 | 45.30064 | 6.90341 | 33064 ft | 514 kts | 147° |
| 2026-04-20 01:59 | 45.19256 | 7.03798 | 33067 ft | 516 kts | 136° |
| 2026-04-20 01:59 | 45.09309 | 7.18207 | 33062 ft | 517 kts | 128° |
| 2026-04-20 01:59 | 44.92158 | 7.50759 | 33040 ft | 516 kts | 132° |
| 2026-04-20 02:00 | 44.73025 | 7.81452 | 33002 ft | 521 kts | 131° |
| 2026-04-20 02:00 | 44.53855 | 8.12040 | 33003 ft | 525 kts | 132° |
| 2026-04-20 02:01 | 44.34424 | 8.42704 | 33010 ft | 527 kts | 132° |
| 2026-04-20 02:01 | 44.14941 | 8.73119 | 33010 ft | 526 kts | 133° |
| 2026-04-20 02:02 | 43.95376 | 9.03337 | 33005 ft | 526 kts | 133° |
| 2026-04-20 02:02 | 43.75615 | 9.33534 | 33018 ft | 526 kts | 133° |
| 2026-04-20 02:03 | 43.55880 | 9.63375 | 33017 ft | 526 kts | 133° |
| 2026-04-20 02:03 | 43.36124 | 9.92987 | 33019 ft | 526 kts | 133° |
| 2026-04-20 02:04 | 43.17008 | 10.23215 | 33030 ft | 526 kts | 132° |
| 2026-04-20 02:04 | 42.97588 | 10.53467 | 33032 ft | 528 kts | 133° |
| 2026-04-20 02:05 | 42.78082 | 10.83554 | 33021 ft | 532 kts | 133° |
| 2026-04-20 02:05 | 42.58234 | 11.13851 | 33045 ft | 536 kts | 133° |
| 2026-04-20 02:06 | 42.38345 | 11.43898 | 33043 ft | 541 kts | 134° |
| 2026-04-20 02:06 | 42.18051 | 11.74242 | 33055 ft | 543 kts | 134° |
| 2026-04-20 02:07 | 41.97788 | 12.04227 | 33137 ft | 544 kts | 134° |
| 2026-04-20 02:07 | 41.77429 | 12.34050 | 32996 ft | 543 kts | 134° |
| 2026-04-20 02:08 | 41.56899 | 12.63820 | 33062 ft | 540 kts | 134° |
| 2026-04-20 02:08 | 41.36526 | 12.93066 | 33065 ft | 538 kts | 134° |
| 2026-04-20 02:09 | 41.16153 | 13.22027 | 33071 ft | 538 kts | 134° |
| 2026-04-20 02:09 | 40.95673 | 13.50856 | 33081 ft | 538 kts | 134° |
| 2026-04-20 02:10 | 40.75008 | 13.79664 | 33086 ft | 538 kts | 135° |
| 2026-04-20 02:10 | 40.54404 | 14.08112 | 33088 ft | 537 kts | 135° |
| 2026-04-20 02:11 | 40.33709 | 14.36415 | 33090 ft | 536 kts | 135° |
| 2026-04-20 02:11 | 40.13060 | 14.64389 | 33084 ft | 534 kts | 135° |
| 2026-04-20 02:12 | 39.92394 | 14.92127 | 33091 ft | 533 kts | 135° |
| 2026-04-20 02:12 | 39.71582 | 15.19806 | 33089 ft | 532 kts | 135° |
| 2026-04-20 02:13 | 39.50779 | 15.47220 | 33105 ft | 532 kts | 135° |
| 2026-04-20 02:13 | 39.30051 | 15.74289 | 33106 ft | 531 kts | 135° |
| 2026-04-20 02:14 | 39.09479 | 16.01330 | 33085 ft | 530 kts | 131° |
| 2026-04-20 02:14 | 38.90064 | 16.29922 | 33077 ft | 530 kts | 131° |
| 2026-04-20 02:15 | 38.70582 | 16.58186 | 33066 ft | 529 kts | 131° |
| 2026-04-20 02:15 | 38.50969 | 16.86396 | 33070 ft | 527 kts | 131° |
| 2026-04-20 02:16 | 38.31452 | 17.14220 | 33071 ft | 526 kts | 132° |
| 2026-04-20 02:16 | 38.11928 | 17.41813 | 33078 ft | 526 kts | 132° |
| 2026-04-20 02:17 | 37.92354 | 17.69238 | 33079 ft | 526 kts | 132° |
| 2026-04-20 02:17 | 37.72623 | 17.96648 | 33090 ft | 525 kts | 132° |
| 2026-04-20 02:18 | 37.52925 | 18.23780 | 33094 ft | 525 kts | 132° |
| 2026-04-20 02:18 | 37.33083 | 18.50881 | 33098 ft | 525 kts | 132° |
| 2026-04-20 02:19 | 37.13307 | 18.77669 | 33098 ft | 525 kts | 132° |
| 2026-04-20 02:19 | 36.94063 | 19.04931 | 33061 ft | 523 kts | 121° |
| 2026-04-20 02:20 | 36.78597 | 19.35838 | 33114 ft | 522 kts | 121° |
| 2026-04-20 02:20 | 36.63010 | 19.66383 | 33115 ft | 523 kts | 122° |
| 2026-04-20 02:21 | 36.39493 | 20.11972 | 33097 ft | 523 kts | 122° |
| 2026-04-20 02:22 | 36.23724 | 20.42203 | 33123 ft | 523 kts | 123° |
| 2026-04-20 02:22 | 36.10408 | 20.67523 | 33121 ft | 524 kts | 123° |
| 2026-04-20 02:23 | 35.94447 | 20.97631 | 33117 ft | 524 kts | 124° |
| 2026-04-20 02:23 | 35.78418 | 21.27602 | 33112 ft | 525 kts | 124° |
| 2026-04-20 02:24 | 35.62279 | 21.57519 | 33110 ft | 525 kts | 124° |
| 2026-04-20 02:24 | 35.46117 | 21.87224 | 33109 ft | 525 kts | 125° |
| 2026-04-20 02:25 | 35.29753 | 22.17043 | 33104 ft | 525 kts | 125° |
| 2026-04-20 02:25 | 35.13419 | 22.46557 | 33103 ft | 525 kts | 125° |
| 2026-04-20 02:26 | 34.97018 | 22.75945 | 33090 ft | 525 kts | 126° |
| 2026-04-20 02:26 | 34.80492 | 23.05312 | 33086 ft | 526 kts | 126° |
| 2026-04-20 02:27 | 34.63889 | 23.34573 | 33084 ft | 527 kts | 126° |
| 2026-04-20 02:27 | 34.47111 | 23.63901 | 33075 ft | 527 kts | 126° |
| 2026-04-20 02:28 | 34.30359 | 23.92945 | 33073 ft | 528 kts | 126° |
| 2026-04-20 02:28 | 34.13383 | 24.22141 | 33072 ft | 529 kts | 127° |
| 2026-04-20 02:29 | 33.95543 | 24.50010 | 32997 ft | 525 kts | 141° |
| 2026-04-20 02:29 | 33.73683 | 24.73240 | 33060 ft | 524 kts | 141° |
| 2026-04-20 02:30 | 33.51783 | 24.96588 | 33067 ft | 525 kts | 141° |
| 2026-04-20 02:30 | 33.29941 | 25.19700 | 33059 ft | 525 kts | 141° |
| 2026-04-20 02:31 | 33.07900 | 25.42862 | 33057 ft | 526 kts | 141° |
| 2026-04-20 02:31 | 32.85922 | 25.65798 | 33053 ft | 526 kts | 142° |
| 2026-04-20 02:32 | 32.63870 | 25.88654 | 33057 ft | 526 kts | 142° |
| 2026-04-20 02:32 | 32.41825 | 26.11347 | 33052 ft | 526 kts | 142° |
| 2026-04-20 02:33 | 32.19688 | 26.33983 | 33051 ft | 525 kts | 142° |
| 2026-04-20 02:33 | 31.97489 | 26.56531 | 33044 ft | 525 kts | 142° |
| 2026-04-20 02:34 | 31.75388 | 26.78832 | 33044 ft | 524 kts | 143° |
| 2026-04-20 02:34 | 31.53244 | 27.01031 | 33046 ft | 524 kts | 143° |
| 2026-04-20 02:35 | 31.31274 | 27.23711 | 33021 ft | 530 kts | 134° |
| 2026-04-20 02:35 | 31.14634 | 27.52176 | 33056 ft | 533 kts | 127° |
| 2026-04-20 02:36 | 30.97734 | 27.80512 | 33039 ft | 534 kts | 128° |
| 2026-04-20 02:36 | 30.80723 | 28.08801 | 33039 ft | 535 kts | 128° |
| 2026-04-20 02:37 | 30.63510 | 28.37218 | 33031 ft | 535 kts | 129° |
| 2026-04-20 02:37 | 30.46334 | 28.65374 | 33030 ft | 536 kts | 129° |
| 2026-04-20 02:38 | 30.29069 | 28.93478 | 33021 ft | 538 kts | 129° |
| 2026-04-20 02:38 | 30.11545 | 29.21805 | 33012 ft | 540 kts | 129° |
| 2026-04-20 02:39 | 29.94394 | 29.50232 | 33020 ft | 542 kts | 129° |
| 2026-04-20 02:39 | 29.77049 | 29.78732 | 33019 ft | 544 kts | 129° |
| 2026-04-20 02:40 | 29.59551 | 30.07292 | 33005 ft | 545 kts | 130° |
| 2026-04-20 02:40 | 29.42061 | 30.35647 | 33000 ft | 545 kts | 131° |
| 2026-04-20 02:41 | 29.21823 | 30.60681 | 33020 ft | 537 kts | 140° |
| 2026-04-20 02:41 | 29.01058 | 30.85292 | 33007 ft | 539 kts | 141° |
| 2026-04-20 02:42 | 28.80149 | 31.09902 | 33024 ft | 540 kts | 141° |
| 2026-04-20 02:42 | 28.59507 | 31.34948 | 33004 ft | 545 kts | 139° |
| 2026-04-20 02:43 | 28.39164 | 31.60554 | 33014 ft | 544 kts | 140° |
| 2026-04-20 02:43 | 28.18833 | 31.85920 | 33000 ft | 544 kts | 140° |
| 2026-04-20 02:44 | 27.99595 | 32.12512 | 32957 ft | 562 kts | 124° |
| 2026-04-20 02:44 | 27.84791 | 32.43555 | 32990 ft | 560 kts | 125° |
| 2026-04-20 02:45 | 27.69688 | 32.74584 | 32962 ft | 561 kts | 126° |
| 2026-04-20 02:45 | 27.54599 | 33.05375 | 32924 ft | 563 kts | 126° |
| 2026-04-20 02:46 | 27.39425 | 33.36122 | 32914 ft | 564 kts | 126° |
| 2026-04-20 02:46 | 27.24063 | 33.67047 | 32906 ft | 565 kts | 127° |
| 2026-04-20 02:47 | 27.10807 | 33.99213 | 32888 ft | 574 kts | 118° |
| 2026-04-20 02:47 | 26.98931 | 34.32392 | 32875 ft | 575 kts | 118° |
| 2026-04-20 02:48 | 26.86931 | 34.65741 | 32866 ft | 574 kts | 119° |
| 2026-04-20 02:48 | 26.74949 | 34.98741 | 32868 ft | 574 kts | 119° |
| 2026-04-20 02:49 | 26.62830 | 35.31712 | 32861 ft | 574 kts | 119° |
| 2026-04-20 02:49 | 26.50435 | 35.64720 | 32843 ft | 572 kts | 120° |
| 2026-04-20 02:50 | 26.37917 | 35.97253 | 32841 ft | 572 kts | 121° |
| 2026-04-20 02:50 | 26.25290 | 36.29842 | 32822 ft | 571 kts | 121° |
| 2026-04-20 02:51 | 26.11801 | 36.61360 | 32826 ft | 561 kts | 128° |
| 2026-04-20 02:51 | 25.96744 | 36.91710 | 32830 ft | 562 kts | 127° |
| 2026-04-20 02:52 | 25.81569 | 37.22254 | 32836 ft | 563 kts | 128° |
| 2026-04-20 02:52 | 25.66441 | 37.52586 | 32885 ft | 564 kts | 128° |
| 2026-04-20 02:53 | 25.51129 | 37.83107 | 32832 ft | 564 kts | 128° |
| 2026-04-20 02:53 | 25.35921 | 38.13216 | 32814 ft | 560 kts | 127° |
| 2026-04-20 02:54 | 25.20722 | 38.43116 | 32895 ft | 558 kts | 127° |
| 2026-04-20 02:54 | 25.05454 | 38.72976 | 32874 ft | 559 kts | 127° |
| 2026-04-20 02:55 | 24.90081 | 39.02795 | 32909 ft | 560 kts | 127° |
| 2026-04-20 02:55 | 24.74521 | 39.32673 | 32925 ft | 560 kts | 127° |
| 2026-04-20 02:56 | 24.59012 | 39.62298 | 32904 ft | 559 kts | 127° |
| 2026-04-20 02:56 | 24.53730 | 39.78604 | 32919 ft | 579 kts | 100° |
| 2026-04-20 02:56 | 24.52228 | 39.96067 | 32970 ft | 580 kts | 98° |
| 2026-04-20 02:57 | 24.48799 | 40.31336 | 32947 ft | 577 kts | 98° |
| 2026-04-20 02:57 | 24.45307 | 40.66300 | 32927 ft | 574 kts | 98° |
| 2026-04-20 02:58 | 24.41788 | 41.01064 | 32954 ft | 576 kts | 98° |
| 2026-04-20 02:58 | 24.38110 | 41.36046 | 32961 ft | 579 kts | 98° |
| 2026-04-20 02:59 | 24.34339 | 41.71055 | 32952 ft | 580 kts | 98° |
| 2026-04-20 02:59 | 24.31663 | 41.88493 | 32917 ft | 577 kts | 109° |
| 2026-04-20 02:59 | 24.27050 | 42.05386 | 32946 ft | 576 kts | 110° |
| 2026-04-20 03:00 | 24.18072 | 42.39242 | 32968 ft | 577 kts | 109° |
| 2026-04-20 03:00 | 24.09093 | 42.72769 | 32972 ft | 577 kts | 109° |
| 2026-04-20 03:01 | 23.99970 | 43.06553 | 32958 ft | 576 kts | 109° |
| 2026-04-20 03:01 | 23.90882 | 43.39935 | 32966 ft | 574 kts | 109° |
| 2026-04-20 03:02 | 23.81688 | 43.73396 | 32941 ft | 573 kts | 109° |
| 2026-04-20 03:02 | 23.75979 | 44.07390 | 32910 ft | 575 kts | 94° |
| 2026-04-20 03:03 | 23.74186 | 44.31812 | 32913 ft | 574 kts | 95° |
| 2026-04-20 03:03 | 23.73515 | 44.40496 | 33176 ft | 579 kts | 95° |
| 2026-04-20 03:03 | 23.73176 | 44.44894 | 33594 ft | 579 kts | 95° |
| 2026-04-20 03:04 | 23.72841 | 44.49226 | 34000 ft | 578 kts | 95° |
| 2026-04-20 03:04 | 23.72501 | 44.53615 | 34398 ft | 577 kts | 95° |
| 2026-04-20 03:04 | 23.72166 | 44.57934 | 34819 ft | 575 kts | 94° |
| 2026-04-20 03:04 | 23.71825 | 44.62291 | 35237 ft | 573 kts | 94° |
| 2026-04-20 03:05 | 23.71485 | 44.66631 | 35631 ft | 572 kts | 94° |
| 2026-04-20 03:05 | 23.71144 | 44.70961 | 35981 ft | 572 kts | 94° |
| 2026-04-20 03:05 | 23.70801 | 44.75304 | 36323 ft | 572 kts | 94° |
| 2026-04-20 03:05 | 23.70463 | 44.79570 | 36656 ft | 571 kts | 94° |
| 2026-04-20 03:06 | 23.70118 | 44.83917 | 36883 ft | 574 kts | 94° |
| 2026-04-20 03:06 | 23.69424 | 44.92596 | 36910 ft | 576 kts | 94° |
| 2026-04-20 03:07 | 23.68721 | 45.01267 | 36904 ft | 569 kts | 94° |
| 2026-04-20 03:07 | 23.68024 | 45.09828 | 36914 ft | 568 kts | 94° |
| 2026-04-20 03:08 | 23.67319 | 45.18441 | 36907 ft | 568 kts | 94° |
| 2026-04-20 03:08 | 23.66614 | 45.26998 | 36907 ft | 569 kts | 94° |
| 2026-04-20 03:09 | 23.65905 | 45.35577 | 36901 ft | 570 kts | 94° |
| 2026-04-20 03:09 | 23.65309 | 45.42760 | 36900 ft | 571 kts | 94° |
| 2026-04-20 03:10 | 23.64586 | 45.51406 | 36895 ft | 572 kts | 94° |
| 2026-04-20 03:10 | 23.63859 | 45.60041 | 36900 ft | 572 kts | 94° |
| 2026-04-20 03:11 | 23.63129 | 45.68658 | 36892 ft | 572 kts | 94° |
| 2026-04-20 03:11 | 23.62391 | 45.77319 | 36881 ft | 571 kts | 94° |
| 2026-04-20 03:12 | 23.61657 | 45.85897 | 36887 ft | 571 kts | 94° |
| 2026-04-20 03:12 | 23.60917 | 45.94479 | 36893 ft | 570 kts | 94° |
| 2026-04-20 03:13 | 23.60168 | 46.03113 | 36882 ft | 570 kts | 94° |
| 2026-04-20 03:13 | 23.59421 | 46.11670 | 36904 ft | 569 kts | 94° |
| 2026-04-20 03:14 | 23.58663 | 46.20297 | 36897 ft | 569 kts | 94° |
| 2026-04-20 03:14 | 23.57905 | 46.28870 | 36905 ft | 569 kts | 94° |
| 2026-04-20 03:15 | 23.57138 | 46.37475 | 36916 ft | 569 kts | 94° |
| 2026-04-20 03:15 | 23.56374 | 46.46048 | 36921 ft | 569 kts | 94° |
| 2026-04-20 03:16 | 23.55599 | 46.54616 | 36917 ft | 570 kts | 94° |
| 2026-04-20 03:16 | 23.54809 | 46.63195 | 36916 ft | 569 kts | 94° |
| 2026-04-20 03:17 | 23.54013 | 46.71801 | 36922 ft | 569 kts | 94° |
| 2026-04-20 03:17 | 23.53217 | 46.80356 | 36914 ft | 569 kts | 94° |
| 2026-04-20 03:18 | 23.52412 | 46.88962 | 36916 ft | 568 kts | 94° |
| 2026-04-20 03:18 | 23.51605 | 46.97543 | 36911 ft | 568 kts | 94° |
| 2026-04-20 03:19 | 23.50797 | 47.06087 | 36909 ft | 568 kts | 94° |
| 2026-04-20 03:19 | 23.49985 | 47.14613 | 36904 ft | 567 kts | 94° |
| 2026-04-20 03:20 | 23.49170 | 47.23125 | 36889 ft | 567 kts | 94° |
| 2026-04-20 03:20 | 23.48344 | 47.31697 | 36888 ft | 566 kts | 94° |
| 2026-04-20 03:21 | 23.47520 | 47.40202 | 36889 ft | 566 kts | 94° |
| 2026-04-20 03:21 | 23.46693 | 47.48707 | 36891 ft | 565 kts | 94° |
| 2026-04-20 03:22 | 23.45858 | 47.57255 | 36880 ft | 565 kts | 94° |
| 2026-04-20 03:22 | 23.45033 | 47.65721 | 36882 ft | 564 kts | 94° |
| 2026-04-20 03:23 | 23.44201 | 47.74223 | 36873 ft | 564 kts | 94° |
| 2026-04-20 03:23 | 23.43364 | 47.82720 | 36863 ft | 565 kts | 94° |
| 2026-04-20 03:24 | 23.42517 | 47.91261 | 36869 ft | 564 kts | 94° |
| 2026-04-20 03:24 | 23.41673 | 47.99728 | 36862 ft | 564 kts | 94° |
| 2026-04-20 03:25 | 23.40826 | 48.08186 | 36854 ft | 564 kts | 94° |
| 2026-04-20 03:25 | 23.39967 | 48.16708 | 36856 ft | 564 kts | 94° |
| 2026-04-20 03:26 | 23.39110 | 48.25166 | 36855 ft | 564 kts | 94° |
| 2026-04-20 03:26 | 23.38254 | 48.33642 | 36842 ft | 564 kts | 93° |
| 2026-04-20 03:27 | 23.37792 | 48.42177 | 36848 ft | 562 kts | 89° |
| 2026-04-20 03:27 | 23.37509 | 48.50646 | 36849 ft | 562 kts | 89° |
| 2026-04-20 03:28 | 23.37203 | 48.59160 | 36841 ft | 563 kts | 89° |
| 2026-04-20 03:28 | 23.36679 | 48.71904 | 36844 ft | 563 kts | 89° |
| 2026-04-20 03:29 | 23.36318 | 48.80423 | 36840 ft | 563 kts | 89° |
| 2026-04-20 03:29 | 23.35956 | 48.88970 | 36836 ft | 563 kts | 89° |
| 2026-04-20 03:30 | 23.35592 | 48.97472 | 36850 ft | 563 kts | 89° |
| 2026-04-20 03:30 | 23.35208 | 49.05940 | 36843 ft | 563 kts | 91° |
| 2026-04-20 03:31 | 23.34190 | 49.14436 | 36844 ft | 565 kts | 96° |
| 2026-04-20 03:31 | 23.32914 | 49.22849 | 36842 ft | 565 kts | 97° |
| 2026-04-20 03:32 | 23.31642 | 49.31272 | 36845 ft | 565 kts | 96° |
| 2026-04-20 03:32 | 23.30402 | 49.39748 | 36839 ft | 565 kts | 96° |
| 2026-04-20 03:33 | 23.29186 | 49.48160 | 36840 ft | 565 kts | 96° |
| 2026-04-20 03:33 | 23.27954 | 49.56646 | 36841 ft | 565 kts | 96° |
| 2026-04-20 03:34 | 23.26725 | 49.65051 | 36842 ft | 566 kts | 96° |
| 2026-04-20 03:34 | 23.25484 | 49.73497 | 36842 ft | 566 kts | 96° |
| 2026-04-20 03:35 | 23.24235 | 49.81959 | 36842 ft | 565 kts | 96° |
| 2026-04-20 03:35 | 23.22989 | 49.90374 | 36842 ft | 565 kts | 96° |
| 2026-04-20 03:36 | 23.21730 | 49.98846 | 36843 ft | 565 kts | 96° |
| 2026-04-20 03:36 | 23.20474 | 50.07262 | 36837 ft | 564 kts | 96° |
| 2026-04-20 03:37 | 23.19215 | 50.15666 | 36840 ft | 563 kts | 96° |
| 2026-04-20 03:37 | 23.17955 | 50.24049 | 36850 ft | 563 kts | 96° |
| 2026-04-20 03:38 | 23.16688 | 50.32446 | 36849 ft | 562 kts | 96° |
| 2026-04-20 03:38 | 23.15425 | 50.40790 | 36847 ft | 562 kts | 96° |
| 2026-04-20 03:39 | 23.14155 | 50.49147 | 36854 ft | 561 kts | 96° |
| 2026-04-20 03:39 | 23.12878 | 50.57517 | 36840 ft | 561 kts | 96° |
| 2026-04-20 03:40 | 23.11602 | 50.65856 | 36850 ft | 561 kts | 96° |
| 2026-04-20 03:40 | 23.10313 | 50.74242 | 36860 ft | 561 kts | 96° |
| 2026-04-20 03:41 | 23.09028 | 50.82576 | 36853 ft | 561 kts | 96° |
| 2026-04-20 03:41 | 23.07741 | 50.90891 | 36848 ft | 561 kts | 96° |
| 2026-04-20 03:42 | 23.06440 | 50.99271 | 36848 ft | 561 kts | 96° |
| 2026-04-20 03:42 | 23.05144 | 51.07584 | 36850 ft | 561 kts | 96° |
| 2026-04-20 03:43 | 23.03840 | 51.15919 | 36850 ft | 561 kts | 96° |
| 2026-04-20 03:43 | 23.02523 | 51.24309 | 36851 ft | 561 kts | 96° |
| 2026-04-20 03:44 | 23.01214 | 51.32617 | 36848 ft | 561 kts | 96° |
| 2026-04-20 03:44 | 22.99892 | 51.40984 | 36851 ft | 561 kts | 96° |
| 2026-04-20 03:45 | 22.98574 | 51.49293 | 36848 ft | 560 kts | 96° |
| 2026-04-20 03:45 | 22.97252 | 51.57595 | 36849 ft | 560 kts | 96° |
| 2026-04-20 03:46 | 22.95923 | 51.65911 | 36856 ft | 560 kts | 96° |
| 2026-04-20 03:46 | 22.94588 | 51.74243 | 36855 ft | 559 kts | 96° |
| 2026-04-20 03:47 | 22.93250 | 51.82562 | 36855 ft | 559 kts | 96° |
| 2026-04-20 03:47 | 22.91914 | 51.90837 | 36854 ft | 559 kts | 96° |
| 2026-04-20 03:48 | 22.90569 | 51.99145 | 36856 ft | 558 kts | 96° |
| 2026-04-20 03:48 | 22.89225 | 52.07415 | 36850 ft | 558 kts | 96° |
| 2026-04-20 03:49 | 22.87869 | 52.15728 | 36860 ft | 558 kts | 96° |
| 2026-04-20 03:49 | 22.86517 | 52.23994 | 36852 ft | 558 kts | 96° |
| 2026-04-20 03:50 | 22.85164 | 52.32237 | 36851 ft | 557 kts | 96° |
| 2026-04-20 03:50 | 22.83805 | 52.40496 | 36866 ft | 557 kts | 96° |
| 2026-04-20 03:51 | 22.82501 | 52.48786 | 36855 ft | 555 kts | 92° |
| 2026-04-20 03:51 | 22.82069 | 52.57036 | 36862 ft | 549 kts | 85° |
| 2026-04-20 03:52 | 22.81936 | 52.65341 | 36853 ft | 549 kts | 85° |
| 2026-04-20 03:52 | 22.81778 | 52.73585 | 36858 ft | 549 kts | 86° |
| 2026-04-20 03:53 | 22.81570 | 52.81871 | 36860 ft | 550 kts | 86° |
| 2026-04-20 03:53 | 22.81340 | 52.90181 | 36863 ft | 550 kts | 86° |
| 2026-04-20 03:54 | 22.81109 | 52.98450 | 36861 ft | 550 kts | 86° |
| 2026-04-20 03:54 | 22.80878 | 53.06730 | 36863 ft | 550 kts | 86° |
| 2026-04-20 03:55 | 22.80643 | 53.14983 | 36867 ft | 550 kts | 86° |
| 2026-04-20 03:55 | 22.80403 | 53.23302 | 36868 ft | 549 kts | 86° |
| 2026-04-20 03:56 | 22.80161 | 53.31555 | 36867 ft | 549 kts | 86° |
| 2026-04-20 03:56 | 22.79914 | 53.39798 | 36863 ft | 549 kts | 86° |
| 2026-04-20 03:57 | 22.79661 | 53.48068 | 36868 ft | 548 kts | 86° |
| 2026-04-20 03:57 | 22.79406 | 53.56303 | 36875 ft | 547 kts | 86° |
| 2026-04-20 03:58 | 22.79149 | 53.64514 | 36871 ft | 547 kts | 86° |
| 2026-04-20 03:58 | 22.78886 | 53.72744 | 36871 ft | 547 kts | 86° |
| 2026-04-20 03:59 | 22.78619 | 53.80964 | 36876 ft | 546 kts | 86° |
| 2026-04-20 03:59 | 22.78346 | 53.89204 | 36865 ft | 546 kts | 86° |
| 2026-04-20 04:00 | 22.78189 | 53.97383 | 36870 ft | 541 kts | 81° |
| 2026-04-20 04:00 | 22.79062 | 54.05349 | 36867 ft | 529 kts | 70° |
| 2026-04-20 04:01 | 22.80696 | 54.13131 | 36879 ft | 528 kts | 69° |
| 2026-04-20 04:01 | 22.82334 | 54.20881 | 36875 ft | 529 kts | 70° |
| 2026-04-20 04:02 | 22.83666 | 54.27373 | 36871 ft | 530 kts | 70° |
| 2026-04-20 04:02 | 22.85244 | 54.35200 | 36872 ft | 530 kts | 70° |
| 2026-04-20 04:03 | 22.86804 | 54.42983 | 36866 ft | 530 kts | 70° |
| 2026-04-20 04:03 | 22.88375 | 54.50814 | 36873 ft | 529 kts | 70° |
| 2026-04-20 04:04 | 22.89930 | 54.58584 | 36881 ft | 529 kts | 70° |
| 2026-04-20 04:04 | 22.91482 | 54.66355 | 36881 ft | 528 kts | 70° |
| 2026-04-20 04:05 | 22.93037 | 54.74165 | 36877 ft | 527 kts | 70° |
| 2026-04-20 04:05 | 22.94577 | 54.81921 | 36880 ft | 526 kts | 71° |
| 2026-04-20 04:06 | 22.96109 | 54.89653 | 36875 ft | 525 kts | 71° |
| 2026-04-20 04:06 | 22.97645 | 54.97429 | 36878 ft | 524 kts | 71° |
| 2026-04-20 04:07 | 22.99165 | 55.05147 | 36882 ft | 523 kts | 71° |
| 2026-04-20 04:07 | 23.00678 | 55.12844 | 36875 ft | 523 kts | 71° |
| 2026-04-20 04:08 | 23.02964 | 55.20122 | 36884 ft | 493 kts | 47° |
| 2026-04-20 04:08 | 23.05166 | 55.22881 | 36890 ft | 475 kts | 33° |
| 2026-04-20 04:08 | 23.07772 | 55.25024 | 36885 ft | 468 kts | 24° |
| 2026-04-20 04:09 | 23.10650 | 55.26622 | 36880 ft | 457 kts | 11° |
| 2026-04-20 04:09 | 23.13643 | 55.27528 | 36899 ft | 452 kts | 7° |
| 2026-04-20 04:09 | 23.19788 | 55.29204 | 36888 ft | 458 kts | 7° |
| 2026-04-20 04:10 | 23.25965 | 55.30961 | 36873 ft | 453 kts | 8° |
| 2026-04-20 04:10 | 23.32000 | 55.32732 | 36882 ft | 449 kts | 8° |
| 2026-04-20 04:11 | 23.38025 | 55.34504 | 36885 ft | 449 kts | 8° |
| 2026-04-20 04:11 | 23.44056 | 55.36277 | 36885 ft | 450 kts | 8° |
| 2026-04-20 04:12 | 23.50137 | 55.38067 | 36884 ft | 451 kts | 8° |
| 2026-04-20 04:12 | 23.56203 | 55.39860 | 36892 ft | 452 kts | 8° |
| 2026-04-20 04:13 | 23.62283 | 55.41668 | 36888 ft | 453 kts | 8° |
| 2026-04-20 04:13 | 23.68355 | 55.43476 | 36889 ft | 454 kts | 8° |
| 2026-04-20 04:14 | 23.74466 | 55.45297 | 36890 ft | 455 kts | 8° |
| 2026-04-20 04:14 | 23.80586 | 55.47122 | 36883 ft | 454 kts | 8° |
| 2026-04-20 04:15 | 23.83618 | 55.48028 | 36728 ft | 451 kts | 8° |
| 2026-04-20 04:15 | 23.86638 | 55.48928 | 36263 ft | 454 kts | 9° |
| 2026-04-20 04:15 | 23.89685 | 55.49830 | 35649 ft | 460 kts | 9° |
| 2026-04-20 04:15 | 23.92825 | 55.50761 | 35056 ft | 465 kts | 10° |
| 2026-04-20 04:16 | 23.95934 | 55.51694 | 34569 ft | 469 kts | 13° |
| 2026-04-20 04:16 | 23.99021 | 55.52968 | 34110 ft | 478 kts | 21° |
| 2026-04-20 04:16 | 24.01950 | 55.54687 | 33641 ft | 485 kts | 28° |
| 2026-04-20 04:16 | 24.04767 | 55.56788 | 33120 ft | 491 kts | 36° |
| 2026-04-20 04:17 | 24.07366 | 55.59262 | 32625 ft | 494 kts | 39° |
| 2026-04-20 04:17 | 24.09886 | 55.61802 | 32133 ft | 496 kts | 40° |
| 2026-04-20 04:17 | 24.12418 | 55.64384 | 31631 ft | 497 kts | 40° |
| 2026-04-20 04:17 | 24.14948 | 55.66953 | 31083 ft | 500 kts | 40° |
| 2026-04-20 04:18 | 24.17534 | 55.69552 | 30487 ft | 503 kts | 41° |
| 2026-04-20 04:18 | 24.20100 | 55.72111 | 29864 ft | 500 kts | 41° |
| 2026-04-20 04:18 | 24.22684 | 55.74676 | 29034 ft | 496 kts | 41° |
| 2026-04-20 04:18 | 24.25226 | 55.77197 | 28249 ft | 492 kts | 41° |
| 2026-04-20 04:19 | 24.27733 | 55.79685 | 27460 ft | 489 kts | 41° |
| 2026-04-20 04:19 | 24.30265 | 55.82199 | 26689 ft | 486 kts | 41° |
| 2026-04-20 04:19 | 24.32738 | 55.84658 | 25960 ft | 482 kts | 41° |
| 2026-04-20 04:19 | 24.35223 | 55.87130 | 25235 ft | 479 kts | 41° |
| 2026-04-20 04:20 | 24.37676 | 55.89572 | 24531 ft | 476 kts | 41° |
| 2026-04-20 04:20 | 24.40139 | 55.92029 | 23834 ft | 473 kts | 41° |
| 2026-04-20 04:20 | 24.42572 | 55.94460 | 23089 ft | 471 kts | 41° |
| 2026-04-20 04:20 | 24.44962 | 55.96851 | 22303 ft | 467 kts | 41° |
| 2026-04-20 04:21 | 24.47379 | 55.99268 | 21537 ft | 464 kts | 41° |
| 2026-04-20 04:21 | 24.49714 | 56.01607 | 20849 ft | 448 kts | 41° |
| 2026-04-20 04:21 | 24.51969 | 56.03866 | 20236 ft | 430 kts | 41° |
| 2026-04-20 04:21 | 24.54150 | 56.06051 | 19634 ft | 414 kts | 41° |
| 2026-04-20 04:22 | 24.56237 | 56.08137 | 19057 ft | 401 kts | 41° |
| 2026-04-20 04:22 | 24.58293 | 56.10126 | 18483 ft | 392 kts | 36° |
| 2026-04-20 04:22 | 24.60611 | 56.11681 | 17880 ft | 389 kts | 24° |
| 2026-04-20 04:22 | 24.63144 | 56.12742 | 17257 ft | 387 kts | 14° |
| 2026-04-20 04:23 | 24.65761 | 56.13302 | 16650 ft | 385 kts | 8° |
| 2026-04-20 04:23 | 24.68414 | 56.13735 | 16035 ft | 379 kts | 8° |
| 2026-04-20 04:23 | 24.70968 | 56.14165 | 15432 ft | 369 kts | 8° |
| 2026-04-20 04:23 | 24.73464 | 56.14610 | 14817 ft | 358 kts | 8° |
| 2026-04-20 04:24 | 24.75897 | 56.15055 | 14249 ft | 348 kts | 8° |
| 2026-04-20 04:24 | 24.78259 | 56.15276 | 13669 ft | 339 kts | 357° |
| 2026-04-20 04:24 | 24.80580 | 56.14932 | 13033 ft | 332 kts | 347° |
| 2026-04-20 04:24 | 24.82747 | 56.14133 | 12417 ft | 327 kts | 336° |
| 2026-04-20 04:25 | 24.84825 | 56.13082 | 11825 ft | 333 kts | 335° |
| 2026-04-20 04:25 | 24.86935 | 56.11999 | 11230 ft | 338 kts | 335° |
| 2026-04-20 04:25 | 24.89095 | 56.10898 | 10665 ft | 341 kts | 336° |
| 2026-04-20 04:25 | 24.91207 | 56.09836 | 10215 ft | 328 kts | 336° |
| 2026-04-20 04:26 | 24.93226 | 56.08830 | 9925 ft | 307 kts | 336° |
| 2026-04-20 04:26 | 24.95104 | 56.07895 | 9453 ft | 290 kts | 336° |
| 2026-04-20 04:26 | 24.96907 | 56.06969 | 8790 ft | 280 kts | 331° |
| 2026-04-20 04:26 | 24.98377 | 56.05632 | 8153 ft | 274 kts | 313° |
| 2026-04-20 04:27 | 24.99493 | 56.03944 | 7497 ft | 276 kts | 292° |
| 2026-04-20 04:27 | 24.99742 | 56.01867 | 7116 ft | 275 kts | 270° |
| 2026-04-20 04:27 | 24.99705 | 55.99761 | 6866 ft | 272 kts | 270° |
| 2026-04-20 04:27 | 24.99690 | 55.97695 | 6726 ft | 266 kts | 271° |
| 2026-04-20 04:28 | 24.99684 | 55.95683 | 6560 ft | 260 kts | 271° |
| 2026-04-20 04:28 | 24.99683 | 55.93690 | 6309 ft | 259 kts | 271° |
| 2026-04-20 04:28 | 24.99687 | 55.91707 | 6027 ft | 259 kts | 271° |
| 2026-04-20 04:28 | 24.99693 | 55.89726 | 5756 ft | 258 kts | 271° |
| 2026-04-20 04:29 | 24.99701 | 55.87751 | 5486 ft | 256 kts | 271° |
| 2026-04-20 04:29 | 24.99708 | 55.85790 | 5200 ft | 255 kts | 271° |
| 2026-04-20 04:29 | 24.99714 | 55.83866 | 5121 ft | 247 kts | 271° |
| 2026-04-20 04:29 | 24.99920 | 55.82030 | 5060 ft | 246 kts | 295° |
| 2026-04-20 04:30 | 25.00788 | 55.80386 | 5080 ft | 253 kts | 304° |
| 2026-04-20 04:30 | 25.01732 | 55.78727 | 5057 ft | 256 kts | 303° |
| 2026-04-20 04:30 | 25.02662 | 55.77062 | 5059 ft | 253 kts | 303° |
| 2026-04-20 04:30 | 25.03583 | 55.75415 | 5048 ft | 250 kts | 303° |
| 2026-04-20 04:31 | 25.04493 | 55.73787 | 4861 ft | 249 kts | 303° |
| 2026-04-20 04:31 | 25.05400 | 55.72164 | 4569 ft | 248 kts | 303° |
| 2026-04-20 04:31 | 25.06308 | 55.70543 | 4255 ft | 248 kts | 303° |
| 2026-04-20 04:31 | 25.07212 | 55.68923 | 3947 ft | 247 kts | 303° |
| 2026-04-20 04:32 | 25.08099 | 55.67336 | 3678 ft | 246 kts | 303° |
| 2026-04-20 04:32 | 25.08991 | 55.65738 | 3403 ft | 244 kts | 303° |
| 2026-04-20 04:32 | 25.09880 | 55.64149 | 3126 ft | 243 kts | 303° |
| 2026-04-20 04:32 | 25.10766 | 55.62560 | 2817 ft | 242 kts | 303° |
| 2026-04-20 04:33 | 25.11665 | 55.60988 | 2527 ft | 241 kts | 303° |
| 2026-04-20 04:33 | 25.12556 | 55.59417 | 2239 ft | 241 kts | 302° |
| 2026-04-20 04:33 | 25.13419 | 55.57870 | 2129 ft | 230 kts | 302° |
| 2026-04-20 04:33 | 25.14219 | 55.56423 | 2136 ft | 212 kts | 302° |
| 2026-04-20 04:34 | 25.14982 | 55.55042 | 2074 ft | 209 kts | 302° |
| 2026-04-20 04:34 | 25.15735 | 55.53681 | 2064 ft | 207 kts | 302° |
| 2026-04-20 04:34 | 25.16493 | 55.52315 | 2068 ft | 209 kts | 302° |
| 2026-04-20 04:34 | 25.17246 | 55.50953 | 2052 ft | 211 kts | 302° |
| 2026-04-20 04:35 | 25.17991 | 55.49606 | 2030 ft | 198 kts | 302° |
| 2026-04-20 04:35 | 25.18695 | 55.48336 | 1817 ft | 190 kts | 302° |
| 2026-04-20 04:35 | 25.19365 | 55.47123 | 1614 ft | 178 kts | 302° |
| 2026-04-20 04:35 | 25.19985 | 55.46003 | 1363 ft | 163 kts | 301° |
| 2026-04-20 04:36 | 25.21083 | 55.44017 | 982 ft | 148 kts | 301° |
| 2026-04-20 04:36 | 25.21625 | 55.43038 | 801 ft | 150 kts | 301° |
| 2026-04-20 04:36 | 25.22163 | 55.42066 | 627 ft | 151 kts | 301° |
| 2026-04-20 04:37 | 25.22711 | 55.41081 | 404 ft | 151 kts | 301° |
| 2026-04-20 04:37 | 25.23254 | 55.40097 | 213 ft | 148 kts | 301° |
| 2026-04-20 04:37 | 25.23795 | 55.39122 | 41 ft | 147 kts | 301° |
| 2026-04-20 04:37 | 25.24277 | 55.38248 | 37 ft | 113 kts | 301° |
| 2026-04-20 04:38 | 25.24605 | 55.37662 | 33 ft | 65 kts | 302° |
| 2026-04-20 04:38 | 25.24757 | 55.37353 | 34 ft | 35 kts | 288° |
| 2026-04-20 04:38 | 25.24787 | 55.37175 | 33 ft | 19 kts | 272° |
| 2026-04-20 04:38 | 25.24789 | 55.37049 | 29 ft | 9 kts | 271° |
| 2026-04-20 04:39 | 25.24782 | 55.36975 | 28 ft | 11 kts | 247° |
| 2026-04-20 04:39 | 25.24721 | 55.36920 | 27 ft | 12 kts | 209° |
| 2026-04-20 04:39 | 25.24646 | 55.36872 | 26 ft | 13 kts | 211° |
| 2026-04-20 04:39 | 25.24572 | 55.36821 | 31 ft | 13 kts | 211° |
| 2026-04-20 04:40 | 25.24497 | 55.36771 | 30 ft | 13 kts | 211° |
| 2026-04-20 04:40 | 25.24429 | 55.36712 | 31 ft | 13 kts | 227° |
| 2026-04-20 04:40 | 25.24387 | 55.36630 | 29 ft | 13 kts | 251° |
| 2026-04-20 04:40 | 25.24376 | 55.36535 | 30 ft | 13 kts | 275° |
| 2026-04-20 04:41 | 25.24402 | 55.36443 | 29 ft | 13 kts | 296° |
| 2026-04-20 04:41 | 25.24446 | 55.36360 | 27 ft | 13 kts | 301° |
| 2026-04-20 04:41 | 25.24492 | 55.36278 | 32 ft | 13 kts | 302° |
| 2026-04-20 04:41 | 25.24538 | 55.36196 | 30 ft | 13 kts | 302° |
| 2026-04-20 04:42 | 25.24584 | 55.36114 | 29 ft | 13 kts | 302° |
| 2026-04-20 04:42 | 25.24630 | 55.36033 | 29 ft | 13 kts | 302° |
| 2026-04-20 04:42 | 25.24676 | 55.35951 | 28 ft | 13 kts | 302° |
| 2026-04-20 04:42 | 25.24721 | 55.35869 | 29 ft | 13 kts | 302° |
| 2026-04-20 04:43 | 25.24780 | 55.35796 | 30 ft | 11 kts | 323° |
| 2026-04-20 04:43 | 25.24830 | 55.35769 | 28 ft | 7 kts | 354° |
| 2026-04-20 04:43 | 25.24876 | 55.35791 | 28 ft | 7 kts | 36° |
| 2026-04-20 04:43 | 25.24906 | 55.35814 | 29 ft | 3 kts | 33° |
| 2026-04-20 04:44 | 25.24924 | 55.35826 | 29 ft | 3 kts | 32° |
| 2026-04-20 04:44 | 25.24928 | 55.35829 | 29 ft | 0 kts | 31° |